createdAt,value
2019-05-26T00:00:12.419Z,95827.54
2019-05-26T00:05:09.666Z,95828.08
2019-05-26T00:10:07.641Z,95822.20
2019-05-26T00:15:05.724Z,95825.19
2019-05-26T00:20:06.227Z,95812.52
2019-05-26T00:25:05.786Z,95812.09
2019-05-26T00:30:08.154Z,95811.17
2019-05-26T00:35:06.909Z,95821.35
2019-05-26T00:40:06.244Z,95824.09
2019-05-26T00:45:06.069Z,95824.69
2019-05-26T00:50:05.865Z,95823.95
2019-05-26T00:55:05.589Z,95824.18
2019-05-26T01:00:07.470Z,95822.70
2019-05-26T01:05:06.939Z,95830.77
2019-05-26T01:10:08.790Z,95834.30
2019-05-26T01:15:06.486Z,95836.01
2019-05-26T01:20:05.274Z,95833.66
2019-05-26T01:25:05.400Z,95842.88
2019-05-26T01:30:06.865Z,95841.85
2019-05-26T01:35:05.742Z,95840.05
2019-05-26T01:40:07.535Z,95840.23
2019-05-26T01:45:07.940Z,95841.34
2019-05-26T01:50:08.291Z,95840.63
2019-05-26T01:55:07.084Z,95845.23
2019-05-26T02:00:05.717Z,95843.05
2019-05-26T02:05:04.662Z,95847.71
2019-05-26T02:10:02.291Z,95844.91
2019-05-26T02:14:59.379Z,95845.73
2019-05-26T02:19:56.371Z,95841.91
2019-05-26T02:24:55.230Z,95847.73
2019-05-26T02:29:52.773Z,95847.09
2019-05-26T02:34:49.753Z,95854.32
2019-05-26T02:39:48.667Z,95854.65
2019-05-26T02:44:47.641Z,95853.31
2019-05-26T02:49:45.022Z,95855.09
2019-05-26T02:54:42.028Z,95860.34
2019-05-26T02:59:39.022Z,95852.45
2019-05-26T03:04:37.832Z,95854.12
2019-05-26T03:09:38.417Z,95864.03
2019-05-26T03:14:39.492Z,95863.58
2019-05-26T03:19:41.708Z,95862.60
2019-05-26T03:24:42.168Z,95863.53
2019-05-26T03:29:39.680Z,95879.17
2019-05-26T03:34:37.615Z,95875.30
2019-05-26T03:39:44.573Z,95876.81
2019-05-26T03:44:33.504Z,95874.44
2019-05-26T03:49:30.694Z,95874.98
2019-05-26T03:54:28.038Z,95874.91
2019-05-26T03:59:25.191Z,95882.47
2019-05-26T04:04:22.180Z,95878.55
2019-05-26T04:09:19.165Z,95875.45
2019-05-26T04:14:16.301Z,95875.68
2019-05-26T04:19:15.345Z,95885.08
2019-05-26T04:24:14.285Z,95880.17
2019-05-26T04:29:11.744Z,95884.27
2019-05-26T04:34:08.870Z,95888.52
2019-05-26T04:39:08.799Z,95889.18
2019-05-26T04:44:05.797Z,95894.68
2019-05-26T04:49:07.251Z,95902.88
2019-05-26T04:54:04.315Z,95885.78
2019-05-26T04:59:01.410Z,95881.19
2019-05-26T05:04:00.533Z,95881.30
2019-05-26T05:08:57.726Z,95878.19
2019-05-26T05:13:57.653Z,95875.83
2019-05-26T05:18:56.638Z,95874.52
2019-05-26T05:23:53.856Z,95879.05
2019-05-26T05:28:51.580Z,95878.70
2019-05-26T05:33:50.448Z,95879.45
2019-05-26T05:38:48.833Z,95874.91
2019-05-26T05:43:46.857Z,95881.56
2019-05-26T05:48:44.031Z,95865.39
2019-05-26T05:53:42.597Z,95862.51
2019-05-26T05:58:41.851Z,95862.89
2019-05-26T06:03:38.932Z,95863.83
2019-05-26T06:08:38.441Z,95869.52
2019-05-26T06:13:35.543Z,95867.33
2019-05-26T06:18:32.681Z,95857.38
2019-05-26T06:23:38.161Z,95865.62
2019-05-26T06:28:32.631Z,95857.34
2019-05-26T06:33:29.692Z,95851.31
2019-05-26T06:38:28.820Z,95856.50
2019-05-26T06:43:26.015Z,95860.13
2019-05-26T06:48:26.937Z,95855.40
2019-05-26T06:53:26.037Z,95852.63
2019-05-26T06:58:23.216Z,95857.48
2019-05-26T07:03:22.176Z,95861.48
2019-05-26T07:08:19.347Z,95854.25
2019-05-26T07:13:16.469Z,95857.80
2019-05-26T07:18:13.949Z,95856.40
2019-05-26T07:23:13.167Z,95850.81
2019-05-26T07:28:10.815Z,95851.41
2019-05-26T07:33:07.926Z,95844.02
2019-05-26T07:38:05.011Z,95842.84
2019-05-26T07:43:02.230Z,95844.86
2019-05-26T07:47:59.921Z,95849.27
2019-05-26T07:52:57.342Z,95853.38
2019-05-26T07:57:54.405Z,95854.57
2019-05-26T08:02:51.756Z,95857.27
2019-05-26T08:07:50.695Z,95857.72
2019-05-26T08:12:47.868Z,95858.73
2019-05-26T08:17:44.944Z,95852.42
2019-05-26T08:22:42.051Z,95843.27
2019-05-26T08:27:39.273Z,95856.41
2019-05-26T08:32:36.300Z,95847.19
2019-05-26T08:37:33.317Z,95846.95
2019-05-26T08:42:43.710Z,95846.23
2019-05-26T08:47:29.772Z,95839.33
2019-05-26T08:52:26.909Z,95838.58
2019-05-26T08:57:24.222Z,95845.59
2019-05-26T09:02:21.409Z,95842.07
2019-05-26T09:07:20.352Z,95834.87
2019-05-26T09:12:17.362Z,95831.44
2019-05-26T09:17:14.449Z,95835.58
2019-05-26T09:22:11.569Z,95828.27
2019-05-26T09:27:08.765Z,95826.53
2019-05-26T09:32:06.020Z,95830.30
2019-05-26T09:37:04.979Z,95824.84
2019-05-26T09:42:03.958Z,95829.63
2019-05-26T09:47:01.184Z,95827.66
2019-05-26T09:51:58.235Z,95825.30
2019-05-26T09:56:55.263Z,95815.31
2019-05-26T10:01:52.439Z,95818.27
2019-05-26T10:06:51.471Z,95819.43
2019-05-26T10:11:48.511Z,95816.61
2019-05-26T10:16:47.599Z,95814.34
2019-05-26T10:21:44.802Z,95829.19
2019-05-26T10:26:41.910Z,95817.25
2019-05-26T10:31:38.928Z,95816.55
2019-05-26T10:36:36.020Z,95820.63
2019-05-26T10:41:33.230Z,95816.38
2019-05-26T10:46:32.175Z,95818.06
2019-05-26T10:51:29.232Z,95815.28
2019-05-26T10:56:26.388Z,95807.72
2019-05-26T11:01:23.416Z,95807.41
2019-05-26T11:06:22.074Z,95818.80
2019-05-26T11:11:19.093Z,95809.39
2019-05-26T11:16:16.185Z,95813.12
2019-05-26T11:21:13.233Z,95805.41
2019-05-26T11:26:12.200Z,95811.84
2019-05-26T11:31:09.241Z,95800.31
2019-05-26T11:36:06.343Z,95802.63
2019-05-26T11:41:03.432Z,95803.73
2019-05-26T11:46:00.605Z,95806.50
2019-05-26T11:50:57.705Z,95806.31
2019-05-26T11:55:54.731Z,95796.76
2019-05-26T12:00:51.795Z,95802.18
2019-05-26T12:05:49.470Z,95797.46
2019-05-26T12:10:49.619Z,95795.11
2019-05-26T12:15:46.789Z,95785.16
2019-05-26T12:20:45.753Z,95777.45
2019-05-26T12:25:42.920Z,95767.09
2019-05-26T12:30:41.945Z,95768.45
2019-05-26T12:35:43.640Z,95774.00
2019-05-26T12:40:43.009Z,95770.07
2019-05-26T12:45:40.203Z,95766.61
2019-05-26T12:50:37.494Z,95759.46
2019-05-26T12:55:34.635Z,95760.09
2019-05-26T13:00:47.683Z,95760.88
2019-05-26T13:05:30.736Z,95767.03
2019-05-26T13:10:27.761Z,95766.05
2019-05-26T13:15:25.520Z,95765.44
2019-05-26T13:20:22.837Z,95777.11
2019-05-26T13:25:20.218Z,95785.59
2019-05-26T13:30:21.025Z,95791.25
2019-05-26T13:35:19.533Z,95788.34
2019-05-26T13:40:16.793Z,95797.64
2019-05-26T13:45:22.346Z,95800.23
2019-05-26T13:50:16.942Z,95801.19
2019-05-26T13:55:16.268Z,95795.97
2019-05-26T14:00:15.616Z,95791.78
2019-05-26T14:05:14.755Z,95798.54
2019-05-26T14:10:12.137Z,95807.41
2019-05-26T14:15:11.342Z,95820.30
2019-05-26T14:20:12.699Z,95818.44
2019-05-26T14:25:09.967Z,95805.12
2019-05-26T14:30:07.809Z,95796.84
2019-05-26T14:35:06.433Z,95808.24
2019-05-26T14:40:07.112Z,95808.13
2019-05-26T14:45:07.633Z,95806.77
2019-05-26T14:50:08.773Z,95801.66
2019-05-26T14:55:06.648Z,95800.11
2019-05-26T15:00:10.993Z,95810.23
2019-05-26T15:05:08.827Z,95804.70
2019-05-26T15:10:08.543Z,95795.86
2019-05-26T15:15:06.848Z,95782.39
2019-05-26T15:20:06.203Z,95773.84
2019-05-26T15:25:05.563Z,95763.64
2019-05-26T15:30:09.905Z,95761.96
2019-05-26T15:35:08.057Z,95760.95
2019-05-26T15:40:11.763Z,95766.69
2019-05-26T15:45:09.383Z,95763.58
2019-05-26T15:50:08.300Z,95759.86
2019-05-26T15:55:05.581Z,95765.31
2019-05-26T16:00:06.139Z,95761.98
2019-05-26T16:05:05.618Z,95765.81
2019-05-26T16:10:05.745Z,95775.01
2019-05-26T16:15:05.799Z,95769.69
2019-05-26T16:20:06.762Z,95775.34
2019-05-26T16:25:05.026Z,95774.84
2019-05-26T16:30:06.658Z,95771.55
2019-05-26T16:35:04.167Z,95772.38
2019-05-26T16:40:01.167Z,95778.67
2019-05-26T16:44:58.213Z,95784.40
2019-05-26T16:49:55.445Z,95790.95
2019-05-26T16:54:52.610Z,95798.03
2019-05-26T16:59:49.847Z,95820.28
2019-05-26T17:04:47.025Z,95818.06
2019-05-26T17:09:44.559Z,95815.33
2019-05-26T17:14:43.011Z,95806.05
2019-05-26T17:19:41.925Z,95803.80
2019-05-26T17:24:38.872Z,95803.38
2019-05-26T17:29:36.291Z,95808.55
2019-05-26T17:34:34.585Z,95806.33
2019-05-26T17:39:31.644Z,95811.70
2019-05-26T17:44:28.707Z,95810.58
2019-05-26T17:49:25.783Z,95818.37
2019-05-26T17:54:22.769Z,95807.38
2019-05-26T17:59:19.797Z,95802.39
2019-05-26T18:04:16.875Z,95800.69
2019-05-26T18:09:15.658Z,95806.03
2019-05-26T18:14:12.722Z,95809.47
2019-05-26T18:19:11.186Z,95812.95
2019-05-26T18:24:08.327Z,95811.53
2019-05-26T18:29:08.595Z,95806.84
2019-05-26T18:34:05.790Z,95804.41
2019-05-26T18:39:08.000Z,95809.92
2019-05-26T18:44:04.989Z,95814.90
2019-05-26T18:49:04.509Z,95814.77
2019-05-26T18:54:03.621Z,95819.23
2019-05-26T18:59:00.698Z,95820.23
2019-05-26T19:03:59.465Z,95824.66
2019-05-26T19:08:56.438Z,95823.95
2019-05-26T19:13:53.113Z,95822.25
2019-05-26T19:18:50.257Z,95824.80
2019-05-26T19:23:47.314Z,95832.95
2019-05-26T19:28:44.291Z,95824.45
2019-05-26T19:33:41.225Z,95827.77
2019-05-26T19:38:38.399Z,95823.48
2019-05-26T19:43:36.972Z,95821.99
2019-05-26T19:48:37.410Z,95824.08
2019-05-26T19:53:35.039Z,95828.34
2019-05-26T19:58:32.722Z,95825.00
2019-05-26T20:03:29.470Z,95823.45
2019-05-26T20:08:26.461Z,95822.30
2019-05-26T20:13:23.127Z,95823.75
2019-05-26T20:18:19.889Z,95823.84
2019-05-26T20:23:16.559Z,95824.69
2019-05-26T20:28:15.322Z,95822.41
2019-05-26T20:33:12.292Z,95812.83
2019-05-26T20:38:10.934Z,95823.50
2019-05-26T20:43:08.109Z,95819.87
2019-05-26T20:48:05.130Z,95819.32
2019-05-26T20:53:03.474Z,95815.03
2019-05-26T20:58:00.590Z,95818.34
2019-05-26T21:02:57.596Z,95814.71
2019-05-26T21:07:54.738Z,95814.02
2019-05-26T21:12:51.880Z,95812.48
2019-05-26T21:17:49.061Z,95820.21
2019-05-26T21:22:47.875Z,95824.29
2019-05-26T21:27:44.871Z,95826.15
2019-05-26T21:32:41.825Z,95829.64
2019-05-26T21:37:38.909Z,95830.67
2019-05-26T21:42:40.986Z,95820.41
2019-05-26T21:47:38.875Z,95820.61
2019-05-26T21:52:35.959Z,95820.04
2019-05-26T21:57:33.488Z,95816.63
2019-05-26T22:02:30.533Z,95818.91
2019-05-26T22:07:28.105Z,95811.33
2019-05-26T22:12:25.159Z,95809.61
2019-05-26T22:17:22.201Z,95806.27
2019-05-26T22:22:19.721Z,95802.20
2019-05-26T22:27:17.840Z,95804.91
2019-05-26T22:32:14.896Z,95800.42
2019-05-26T22:37:16.559Z,95805.09
2019-05-26T22:42:13.558Z,95803.56
2019-05-26T22:47:10.544Z,95800.02
2019-05-26T22:52:10.168Z,95805.14
2019-05-26T22:57:09.166Z,95805.89
2019-05-26T23:02:06.265Z,95800.98
2019-05-26T23:07:04.716Z,95791.06
2019-05-26T23:12:01.718Z,95803.09
2019-05-26T23:16:59.115Z,95796.63
2019-05-26T23:21:56.175Z,95798.70
2019-05-26T23:26:53.158Z,95791.86
2019-05-26T23:31:52.705Z,95795.93
2019-05-26T23:36:49.858Z,95792.84
2019-05-26T23:41:46.847Z,95790.61
2019-05-26T23:46:43.835Z,95788.58
2019-05-26T23:51:40.889Z,95790.61
2019-05-26T23:56:38.883Z,95791.80
